Time;durP1;ratioP1;P1;durP2;ratioP2;P2;SDS_P1;SDS_P2;PMS_P1;PMS_P2;Temp;Humidity;BMP_temperature;BMP_pressure;BME280_temperature;BME280_humidity;BME280_pressure;Samples;Min_cycle;Max_cycle;Signal;HPM_P1;HPM_P2
2023/02/22 00:02:43;;;;;;;28.10;8.00;;;;;;;3.36;100.00;100597.16;218759;1268;138451;-89
2023/02/22 00:08:13;;;;;;;26.90;7.10;;;;;;;3.33;100.00;100597.64;218688;1267;139033;-90
2023/02/22 00:14:14;;;;;;;21.90;6.60;;;;;;;3.25;100.00;100599.16;219489;1268;138561;-89
2023/02/22 00:26:17;;;;;;;26.00;8.60;;;;;;;3.10;100.00;100602.50;219389;1269;138614;-90
2023/02/22 00:32:17;;;;;;;39.10;12.90;;;;;;;3.00;100.00;100604.15;218799;1267;139849;-89
2023/02/22 00:38:19;;;;;;;35.10;12.50;;;;;;;2.93;100.00;100609.88;218890;1268;138740;-89
2023/02/22 00:44:20;;;;;;;33.60;10.70;;;;;;;2.87;100.00;100605.80;219388;1271;139090;-89
2023/02/22 00:50:23;;;;;;;36.50;10.50;;;;;;;2.82;100.00;100612.64;218897;1268;139218;-90
2023/02/22 00:56:24;;;;;;;27.60;8.90;;;;;;;2.77;100.00;100620.06;219232;1267;139343;-90
2023/02/22 01:08:25;;;;;;;24.60;7.50;;;;;;;2.74;100.00;100627.13;218855;1268;139097;-92
2023/02/22 01:14:26;;;;;;;22.70;5.60;;;;;;;2.70;100.00;100633.14;219266;1268;138445;-90
2023/02/22 01:20:52;;;;;;;28.40;7.80;;;;;;;2.65;100.00;100632.56;218794;1269;138611;-90
2023/02/22 01:26:31;;;;;;;32.40;6.90;;;;;;;2.60;100.00;100627.67;219197;1268;138938;-90
2023/02/22 01:32:32;;;;;;;21.70;7.60;;;;;;;2.51;100.00;100630.41;219249;1268;139160;-90
2023/02/22 01:38:33;;;;;;;28.80;7.90;;;;;;;2.42;100.00;100630.69;218557;1269;138518;-89
2023/02/22 01:50:41;;;;;;;25.90;6.50;;;;;;;2.17;100.00;100639.11;218831;1268;138843;-89
2023/02/22 01:56:43;;;;;;;26.10;8.00;;;;;;;1.95;100.00;100645.27;219265;1269;138989;-90
2023/02/22 02:20:49;;;;;;;28.90;8.20;;;;;;;1.46;100.00;100629.05;218652;1271;138306;-89
2023/02/22 02:26:53;;;;;;;31.30;9.60;;;;;;;1.36;100.00;100632.86;219315;1271;138309;-90
2023/02/22 02:33:12;;;;;;;34.20;11.70;;;;;;;1.24;100.00;100627.31;219243;1268;138270;-89
2023/02/22 02:51:46;;;;;;;30.70;9.00;;;;;;;0.85;100.00;100628.36;218972;1268;139009;-89
2023/02/22 03:03:51;;;;;;;27.30;9.20;;;;;;;0.61;100.00;100619.44;219293;1271;138318;-89
2023/02/22 03:10:00;;;;;;;34.30;10.50;;;;;;;0.55;100.00;100629.18;218860;1267;138584;-90
2023/02/22 03:16:09;;;;;;;34.80;10.90;;;;;;;0.44;100.00;100633.92;219507;1271;139015;-89
2023/02/22 03:28:39;;;;;;;30.30;8.30;;;;;;;0.34;100.00;100631.02;218996;1269;138696;-89
2023/02/22 03:34:51;;;;;;;25.10;7.90;;;;;;;0.28;100.00;100634.57;219549;1269;97861;-90
2023/02/22 03:46:52;;;;;;;24.40;6.50;;;;;;;0.12;100.00;100644.86;219507;1271;96665;-90
2023/02/22 03:52:46;;;;;;;22.90;7.50;;;;;;;0.02;100.00;100652.48;219371;1269;137673;-89
2023/02/22 03:58:48;;;;;;;21.80;6.00;;;;;;;-0.02;100.00;100651.88;218612;1269;138592;-90
2023/02/22 04:04:38;;;;;;;;;;;;;;;;;;;;;
2023/02/22 04:10:41;;;;;;;16.80;5.60;;;;;;;-0.14;100.00;100661.80;219106;1268;138388;-92
2023/02/22 04:16:42;;;;;;;26.10;6.30;;;;;;;-0.18;100.00;100667.77;219594;1269;138505;-91
2023/02/22 04:22:44;;;;;;;21.00;5.60;;;;;;;-0.23;100.00;100664.58;219303;1268;139033;-92
2023/02/22 04:28:45;;;;;;;21.50;6.10;;;;;;;-0.29;100.00;100664.73;218863;1271;138891;-91
2023/02/22 04:34:47;;;;;;;18.40;7.60;;;;;;;-0.33;100.00;100670.11;219386;1269;139184;-94
2023/02/22 04:46:51;;;;;;;33.40;10.60;;;;;;;-0.43;100.00;100678.48;219295;1268;138752;-91
2023/02/22 04:52:51;;;;;;;28.30;10.30;;;;;;;-0.49;100.00;100674.80;219484;1271;97944;-91
2023/02/22 05:04:59;;;;;;;44.30;10.90;;;;;;;-0.44;100.00;100676.42;219478;1271;96593;-92
2023/02/22 05:11:27;;;;;;;42.70;8.70;;;;;;;-0.40;100.00;100678.20;218821;1269;139049;-93
2023/02/22 05:17:03;;;;;;;22.20;7.50;;;;;;;-0.36;100.00;100682.39;214810;1271;138782;-92
2023/02/22 05:23:05;;;;;;;35.80;8.80;;;;;;;-0.31;100.00;100675.05;219400;1269;138778;-91
2023/02/22 05:29:06;;;;;;;39.20;9.90;;;;;;;-0.24;100.00;100681.08;218700;1270;138808;-90
2023/02/22 05:35:07;;;;;;;31.20;8.30;;;;;;;-0.17;100.00;100675.77;219270;1267;139518;-90
2023/02/22 05:41:09;;;;;;;28.40;8.90;;;;;;;-0.11;100.00;100678.39;218905;1271;138771;-90
2023/02/22 05:47:09;;;;;;;25.90;6.70;;;;;;;-0.12;100.00;100680.95;218918;1271;139542;-92
2023/02/22 05:53:13;;;;;;;33.30;7.90;;;;;;;-0.12;100.00;100693.72;219260;1271;138436;-90
2023/02/22 05:59:08;;;;;;;27.60;9.80;;;;;;;-0.14;100.00;100703.77;219447;1271;139091;-90
2023/02/22 06:05:12;;;;;;;25.50;8.80;;;;;;;-0.06;100.00;100707.73;219935;1269;138489;-93
2023/02/22 06:11:14;;;;;;;40.20;13.00;;;;;;;0.04;100.00;100714.17;219187;1271;138804;-93
2023/02/22 06:17:16;;;;;;;26.80;10.30;;;;;;;0.15;100.00;100716.41;219113;1269;139104;-93
2023/02/22 06:23:18;;;;;;;36.20;13.50;;;;;;;0.14;100.00;100727.83;219496;1269;97482;-88
2023/02/22 06:29:11;;;;;;;;;;;;;;;;;;;;;
2023/02/22 06:35:14;;;;;;;32.50;9.70;;;;;;;0.20;100.00;100739.08;219628;1271;138469;-87
2023/02/22 06:41:15;;;;;;;23.10;7.60;;;;;;;0.40;100.00;100747.45;219317;1269;139017;-87
2023/02/22 06:47:16;;;;;;;23.40;7.90;;;;;;;0.55;100.00;100758.83;219340;1271;139123;-87
2023/02/22 06:53:18;;;;;;;23.20;7.30;;;;;;;0.76;100.00;100763.41;220138;1269;138541;-86
2023/02/22 06:59:19;;;;;;;27.50;8.80;;;;;;;0.90;100.00;100759.59;219534;1271;138907;-86
2023/02/22 07:05:21;;;;;;;25.60;6.90;;;;;;;0.99;100.00;100757.55;220140;1269;96588;-86
2023/02/22 07:11:25;;;;;;;26.10;6.70;;;;;;;1.09;100.00;100763.39;219769;1271;139441;-86
2023/02/22 07:17:26;;;;;;;29.00;8.50;;;;;;;1.18;100.00;100766.58;219454;1269;138595;-88
2023/02/22 07:23:28;;;;;;;25.70;7.50;;;;;;;1.26;100.00;100770.84;220000;1271;96542;-87
2023/02/22 07:35:30;;;;;;;34.40;11.10;;;;;;;1.51;100.00;100774.61;220059;1271;138470;-83
2023/02/22 07:41:31;;;;;;;40.20;19.20;;;;;;;1.60;100.00;100776.68;219463;1268;139079;-84
2023/02/22 07:59:35;;;;;;;32.40;12.10;;;;;;;1.87;100.00;100779.18;219620;1269;138684;-85
2023/02/22 08:05:37;;;;;;;33.90;13.80;;;;;;;2.00;100.00;100784.70;223513;1269;139170;-85
2023/02/22 08:11:37;;;;;;;41.00;13.50;;;;;;;2.14;100.00;100783.41;221448;1271;139237;-85
2023/02/22 08:23:40;;;;;;;31.90;11.50;;;;;;;2.46;100.00;100789.53;220194;1269;96500;-85
2023/02/22 08:29:33;;;;;;;;;;;;;;;;;;;;;
2023/02/22 08:35:35;;;;;;;32.80;11.70;;;;;;;2.79;100.00;100801.98;220064;1271;139010;-87
2023/02/22 08:41:36;;;;;;;36.40;14.30;;;;;;;3.01;100.00;100802.10;219665;1269;139470;-85
2023/02/22 08:47:38;;;;;;;25.30;10.40;;;;;;;3.28;100.00;100809.45;219364;1271;139005;-85
2023/02/22 08:53:39;;;;;;;29.00;11.10;;;;;;;3.63;100.00;100814.29;219979;1267;138721;-86
2023/02/22 08:59:38;;;;;;;;;;;;;;;;;;;;;
2023/02/22 09:05:41;;;;;;;27.60;12.30;;;;;;;4.23;100.00;100824.08;219630;1269;138747;-85
2023/02/22 09:11:42;;;;;;;25.90;12.40;;;;;;;4.39;100.00;100830.46;219905;1271;139039;-89
2023/02/22 09:23:45;;;;;;;28.90;14.00;;;;;;;4.86;100.00;100833.13;220789;1269;138825;-86
2023/02/22 09:29:45;;;;;;;31.00;15.50;;;;;;;5.05;100.00;100835.27;219464;1270;139078;-86
2023/02/22 09:35:48;;;;;;;30.40;15.80;;;;;;;5.16;100.00;100839.97;221052;1269;138342;-86
2023/02/22 09:41:54;;;;;;;37.90;18.10;;;;;;;5.29;100.00;100836.76;220397;1269;138655;-87
2023/02/22 09:47:55;;;;;;;35.00;16.10;;;;;;;5.33;100.00;100842.52;220097;1271;138825;-87
2023/02/22 09:59:57;;;;;;;36.30;18.20;;;;;;;5.47;100.00;100831.68;219541;1268;138874;-88
2023/02/22 10:06:04;;;;;;;36.30;18.80;;;;;;;5.33;100.00;100830.89;219931;1272;139245;-87
2023/02/22 10:12:15;;;;;;;35.20;18.50;;;;;;;5.51;100.00;100831.60;219844;1271;139438;-87
2023/02/22 10:18:25;;;;;;;41.50;19.40;;;;;;;5.59;100.00;100836.96;219673;1272;138359;-85
2023/02/22 10:24:44;;;;;;;59.10;23.40;;;;;;;5.74;100.00;100834.55;220214;1272;105592;-87
2023/02/22 10:30:48;;;;;;;30.00;17.30;;;;;;;5.87;100.00;100834.67;219825;1271;138642;-86
2023/02/22 10:36:47;;;;;;;34.50;17.10;;;;;;;6.05;100.00;100836.75;220840;1271;104656;-86
2023/02/22 10:42:48;;;;;;;32.50;16.50;;;;;;;6.22;99.77;100844.36;220506;1268;139939;-85
2023/02/22 10:48:49;;;;;;;30.40;17.40;;;;;;;6.30;99.81;100839.80;219835;1271;138816;-85
2023/02/22 11:00:55;;;;;;;37.90;18.10;;;;;;;6.42;98.18;100834.52;219458;1272;138661;-85
2023/02/22 11:06:59;;;;;;;27.90;15.20;;;;;;;6.39;97.45;100832.62;219390;1273;138945;-84
2023/02/22 11:13:09;;;;;;;34.60;18.90;;;;;;;6.38;97.27;100829.39;219927;1272;106261;-84
2023/02/22 11:19:19;;;;;;;31.20;16.50;;;;;;;6.26;96.81;100826.79;219732;1271;138788;-86
2023/02/22 11:31:34;;;;;;;24.50;12.90;;;;;;;6.39;96.92;100825.42;219612;1272;138318;-84
2023/02/22 11:37:38;;;;;;;24.90;12.70;;;;;;;6.43;95.82;100821.23;219754;1274;138836;-87
2023/02/22 11:43:47;;;;;;;;;;;;;;;;;;;;;
2023/02/22 11:49:58;;;;;;;27.10;13.10;;;;;;;6.44;94.29;100812.88;221518;1270;138215;-84
2023/02/22 11:56:03;;;;;;;;;;;;;;;;;;;;;
2023/02/22 12:02:10;;;;;;;24.40;12.40;;;;;;;6.48;93.33;100820.11;219843;1268;138468;-86
2023/02/22 12:38:53;;;;;;;18.90;7.40;;;;;;;6.52;90.01;100816.27;219585;1270;138502;-86
2023/02/22 12:44:57;;;;;;;15.90;6.40;;;;;;;6.73;89.85;100806.95;220183;1269;105191;-88
2023/02/22 12:51:04;;;;;;;13.30;6.30;;;;;;;6.88;88.83;100808.45;219480;1268;138112;-85
2023/02/22 12:57:17;;;;;;;15.40;5.90;;;;;;;6.98;88.96;100806.05;219608;1268;138742;-85
2023/02/22 13:03:18;;;;;;;18.50;7.30;;;;;;;7.17;87.75;100815.08;220423;1271;138941;-86
2023/02/22 13:09:26;;;;;;;21.80;7.80;;;;;;;7.26;87.76;100815.35;219834;1271;138685;-85
2023/02/22 13:27:53;;;;;;;;;;;;;;;;;;;;;
2023/02/22 13:33:55;;;;;;;13.40;5.90;;;;;;;7.17;85.99;100813.21;219977;1272;139160;-86
2023/02/22 13:40:02;;;;;;;16.30;6.10;;;;;;;7.02;84.89;100810.54;220080;1271;138644;-87
2023/02/22 13:46:18;;;;;;;17.60;6.40;;;;;;;6.99;84.99;100815.31;220307;1269;138853;-86
2023/02/22 13:52:41;;;;;;;16.00;6.00;;;;;;;6.92;85.06;100811.80;219895;1270;139042;-86
2023/02/22 13:58:42;;;;;;;42.90;15.20;;;;;;;6.83;83.71;100806.66;219209;1271;138794;-86
2023/02/22 14:04:58;;;;;;;40.90;15.70;;;;;;;6.66;83.73;100808.70;219451;1267;139006;-87
2023/02/22 14:11:05;;;;;;;13.30;5.50;;;;;;;6.53;83.80;100807.79;218177;1272;139015;-86
2023/02/22 14:17:06;;;;;;;14.80;6.10;;;;;;;6.47;83.16;100809.14;218876;1272;138803;-86
2023/02/22 14:23:08;;;;;;;17.90;7.10;;;;;;;6.39;83.45;100810.82;219336;1267;138367;-86
2023/02/22 14:29:21;;;;;;;18.60;7.70;;;;;;;6.22;82.45;100810.08;219011;1271;138946;-86
2023/02/22 14:35:36;;;;;;;;;;;;;;;;;;;;;
2023/02/22 14:41:37;;;;;;;13.10;5.00;;;;;;;6.03;82.66;100809.35;219240;1269;138963;-87
2023/02/22 14:47:38;;;;;;;17.50;6.50;;;;;;;5.96;82.88;100810.76;218814;1271;139037;-87
2023/02/22 14:59:50;;;;;;;13.20;5.00;;;;;;;5.99;82.27;100799.46;219323;1268;138842;-88
2023/02/22 15:05:45;;;;;;;12.40;4.70;;;;;;;5.82;81.97;100797.80;219451;1269;138384;-88
2023/02/22 15:12:11;;;;;;;14.30;5.80;;;;;;;5.69;81.78;100795.43;219025;1269;138492;-88
2023/02/22 15:17:48;;;;;;;11.10;4.80;;;;;;;5.52;81.47;100800.75;218804;1268;139520;-88
2023/02/22 15:24:11;;;;;;;12.70;5.20;;;;;;;5.35;81.57;100797.22;219450;1268;138506;-90
2023/02/22 15:29:56;;;;;;;11.70;4.60;;;;;;;5.19;81.63;100798.08;218850;1271;139023;-86
2023/02/22 15:36:00;;;;;;;11.20;4.70;;;;;;;5.05;82.58;100794.20;220141;1269;138399;-86
2023/02/22 15:42:01;;;;;;;13.50;4.80;;;;;;;4.88;82.51;100796.95;219321;1267;141110;-87
2023/02/22 15:48:02;;;;;;;14.70;5.80;;;;;;;4.75;83.34;100794.27;218880;1269;138912;-87
2023/02/22 15:54:01;;;;;;;12.80;5.10;;;;;;;4.62;83.20;100797.83;220088;1271;138490;-87
2023/02/22 16:00:04;;;;;;;;;;;;;;;;;;;;;
2023/02/22 16:06:06;;;;;;;11.40;5.30;;;;;;;4.31;83.72;100796.65;219251;1268;138399;-86
2023/02/22 16:12:12;;;;;;;15.30;6.30;;;;;;;4.17;84.14;100805.25;219213;1269;139154;-83
2023/02/22 16:18:26;;;;;;;16.10;7.40;;;;;;;4.02;84.54;100809.04;218677;1271;138458;-84
2023/02/22 16:24:30;;;;;;;23.30;10.90;;;;;;;3.85;84.97;100812.25;219097;1268;138303;-85
2023/02/22 16:30:40;;;;;;;20.80;11.20;;;;;;;3.71;85.56;100822.45;218983;1267;138522;-84
2023/02/22 16:36:45;;;;;;;20.30;12.80;;;;;;;3.58;85.98;100824.97;219232;1271;138326;-85
2023/02/22 16:42:45;;;;;;;17.80;8.80;;;;;;;3.44;86.46;100829.82;219623;1271;246894;-86
2023/02/22 16:49:02;;;;;;;21.30;9.30;;;;;;;3.31;87.01;100833.04;218955;1268;138325;-85
2023/02/22 16:55:06;;;;;;;20.50;10.10;;;;;;;3.19;87.34;100836.79;219454;1271;138111;-85
2023/02/22 17:01:05;;;;;;;20.50;10.00;;;;;;;3.06;87.78;100833.49;219468;1268;138267;-85
2023/02/22 17:19:37;;;;;;;20.30;9.80;;;;;;;2.71;88.75;100835.77;218807;1271;138338;-86
2023/02/22 17:31:23;;;;;;;19.80;10.60;;;;;;;2.50;89.43;100847.86;219030;1269;138641;-86
2023/02/22 17:37:24;;;;;;;24.40;12.50;;;;;;;2.41;89.64;100853.54;223127;1267;208343;-87
2023/02/22 17:49:17;;;;;;;22.20;11.30;;;;;;;2.25;90.41;100850.65;219417;1268;138524;-85
2023/02/22 17:55:18;;;;;;;22.70;11.20;;;;;;;2.19;90.84;100852.48;219307;1269;138475;-86
2023/02/22 18:07:20;;;;;;;26.50;13.20;;;;;;;2.04;91.27;100848.94;219333;1271;139089;-85
2023/02/22 18:13:43;;;;;;;26.00;13.20;;;;;;;1.96;91.89;100847.66;219877;1268;138735;-86
2023/02/22 18:25:24;;;;;;;;;;;;;;;;;;;;;
2023/02/22 18:31:17;;;;;;;22.50;10.70;;;;;;;1.76;92.46;100837.91;220521;1269;138999;-83
2023/02/22 18:41:25;;;;;;;26.10;13.20;;;;;;;1.64;92.73;100841.95;219772;1269;138794;-87
2023/02/22 18:46:28;;;;;;;31.10;15.40;;;;;;;1.59;92.73;100842.58;219907;1267;138565;-86
2023/02/22 18:51:29;;;;;;;26.70;14.00;;;;;;;1.53;92.84;100842.98;220509;1267;138553;-86
2023/02/22 18:56:29;;;;;;;40.00;18.60;;;;;;;1.47;92.87;100843.55;219050;1269;138956;-87
2023/02/22 19:01:37;;;;;;;50.20;23.60;;;;;;;1.41;93.48;100845.94;220014;1267;97058;-89
2023/02/22 19:07:05;;;;;;;44.80;21.60;;;;;;;1.34;93.34;100842.81;219095;1274;139093;-89
2023/02/22 19:12:06;;;;;;;37.10;18.60;;;;;;;1.29;93.83;100839.70;219600;1268;138286;-88
2023/02/22 19:17:27;;;;;;;35.70;15.40;;;;;;;1.25;94.31;100837.73;219052;1268;138946;-91
2023/02/22 19:22:31;;;;;;;32.40;17.40;;;;;;;1.19;94.20;100836.65;219402;1271;138886;-88
2023/02/22 19:27:32;;;;;;;29.70;13.90;;;;;;;1.14;94.69;100832.59;219167;1271;139097;-87
2023/02/22 19:32:35;;;;;;;36.80;16.30;;;;;;;1.10;94.66;100828.06;219872;1268;138507;-87
2023/02/22 19:37:35;;;;;;;34.90;16.20;;;;;;;1.04;95.05;100828.48;219742;1268;138634;-86
2023/02/22 19:42:36;;;;;;;39.70;16.30;;;;;;;1.00;95.26;100827.11;220381;1271;138727;-90
2023/02/22 19:47:37;;;;;;;28.80;14.70;;;;;;;0.95;95.79;100837.50;219026;1269;138554;-89
2023/02/22 19:52:38;;;;;;;31.70;15.30;;;;;;;0.92;95.95;100835.25;219928;1267;138678;-89
2023/02/22 19:57:45;;;;;;;35.10;14.60;;;;;;;0.87;96.17;100830.20;219596;1271;139204;-88
2023/02/22 20:02:45;;;;;;;33.90;16.60;;;;;;;0.85;96.10;100828.47;220052;1271;139020;-87
2023/02/22 20:07:46;;;;;;;36.60;17.20;;;;;;;0.80;96.44;100829.54;219426;1267;138738;-89
2023/02/22 20:12:46;;;;;;;37.70;18.70;;;;;;;0.77;96.77;100834.68;219523;1271;138498;-87
2023/02/22 20:17:49;;;;;;;34.00;16.20;;;;;;;0.74;96.92;100836.98;219271;1268;138834;-87
2023/02/22 20:22:50;;;;;;;27.10;14.50;;;;;;;0.71;97.15;100838.39;219584;1271;139487;-86
2023/02/22 20:27:50;;;;;;;28.50;13.70;;;;;;;0.68;97.40;100841.86;219106;1271;139343;-84
2023/02/22 20:32:51;;;;;;;25.70;13.30;;;;;;;0.66;97.42;100838.23;220414;1268;138612;-86
2023/02/22 20:37:52;;;;;;;25.20;12.40;;;;;;;0.63;97.66;100833.04;219176;1268;139078;-85
2023/02/22 20:42:52;;;;;;;25.20;11.80;;;;;;;0.61;98.04;100827.33;219541;1271;139019;-88
2023/02/22 20:47:53;;;;;;;27.30;13.40;;;;;;;0.59;98.08;100831.77;219296;1271;138954;-86
2023/02/22 20:52:53;;;;;;;23.00;9.70;;;;;;;0.57;98.27;100831.10;219920;1267;138573;-86
2023/02/22 20:57:54;;;;;;;25.60;11.80;;;;;;;0.54;98.34;100822.33;218920;1271;138810;-85
2023/02/22 21:02:54;;;;;;;28.00;13.60;;;;;;;0.53;98.77;100824.46;219720;1268;138859;-86
2023/02/22 21:07:57;;;;;;;27.80;13.10;;;;;;;0.51;98.92;100823.20;219590;1270;138447;-86
2023/02/22 21:12:57;;;;;;;28.70;14.20;;;;;;;0.49;99.21;100819.99;220135;1269;139306;-86
2023/02/22 21:17:58;;;;;;;29.60;12.70;;;;;;;0.46;99.26;100811.48;219559;1271;139092;-86
2023/02/22 21:23:00;;;;;;;32.40;15.70;;;;;;;0.44;99.58;100809.65;220564;1271;137970;-84
2023/02/22 21:28:01;;;;;;;34.40;15.00;;;;;;;0.43;99.58;100806.95;219343;1268;138849;-84
2023/02/22 21:33:05;;;;;;;31.80;14.50;;;;;;;0.40;99.58;100803.92;220028;1268;139673;-86
2023/02/22 21:38:06;;;;;;;32.90;17.00;;;;;;;0.38;99.62;100804.66;219194;1268;139063;-85
2023/02/22 21:43:09;;;;;;;33.30;17.00;;;;;;;0.36;99.69;100803.69;219609;1271;139536;-85
2023/02/22 21:48:10;;;;;;;33.80;16.30;;;;;;;0.33;99.88;100802.77;219138;1269;139931;-85
2023/02/22 21:53:11;;;;;;;34.10;15.50;;;;;;;0.31;99.58;100802.27;219911;1269;138814;-85
2023/02/22 21:58:12;;;;;;;32.40;15.40;;;;;;;0.29;99.63;100803.44;219345;1269;139290;-84
2023/02/22 22:03:19;;;;;;;35.00;16.70;;;;;;;0.26;99.40;100804.36;219928;1269;139760;-86
2023/02/22 22:08:19;;;;;;;35.90;16.40;;;;;;;0.25;99.56;100806.32;219669;1271;141376;-84
2023/02/22 22:13:21;;;;;;;32.60;14.30;;;;;;;0.21;99.20;100805.04;220804;1269;139064;-85
2023/02/22 22:18:21;;;;;;;31.10;13.30;;;;;;;0.19;99.51;100802.55;219775;1271;139256;-83
2023/02/22 22:23:22;;;;;;;26.70;12.70;;;;;;;0.17;99.52;100799.73;220124;1267;138868;-84
2023/02/22 22:28:22;;;;;;;27.30;12.60;;;;;;;0.15;99.19;100800.67;219606;1271;138873;-85
2023/02/22 22:33:23;;;;;;;27.70;11.90;;;;;;;0.11;99.02;100791.37;219818;1268;139049;-85
2023/02/22 22:38:25;;;;;;;30.70;12.00;;;;;;;0.08;99.27;100789.80;219332;1269;139600;-86
2023/02/22 22:43:27;;;;;;;27.70;10.90;;;;;;;0.06;99.36;100789.20;219642;1269;108338;-85
2023/02/22 22:48:30;;;;;;;32.20;14.40;;;;;;;0.04;99.41;100787.01;219127;1271;139172;-86
2023/02/22 22:53:35;;;;;;;30.80;13.50;;;;;;;0.02;99.44;100785.64;219414;1267;138987;-86
2023/02/22 22:58:35;;;;;;;29.00;14.70;;;;;;;0.00;99.15;100788.77;218985;1267;139060;-85
2023/02/22 23:03:36;;;;;;;31.20;11.70;;;;;;;-0.02;99.12;100784.60;220163;1271;139864;-85
2023/02/22 23:08:41;;;;;;;24.20;10.90;;;;;;;-0.05;99.06;100784.10;218923;1269;139999;-85
2023/02/22 23:13:42;;;;;;;26.40;13.60;;;;;;;-0.07;98.89;100784.35;219429;1271;104807;-82
2023/02/22 23:18:42;;;;;;;26.20;10.90;;;;;;;-0.09;98.69;100781.90;219281;1271;138992;-85
2023/02/22 23:23:43;;;;;;;25.50;9.90;;;;;;;-0.11;98.77;100784.95;219963;1267;139167;-91
2023/02/22 23:28:45;;;;;;;23.90;10.30;;;;;;;-0.12;98.74;100787.90;219428;1269;138778;-93
2023/02/22 23:33:49;;;;;;;25.60;10.60;;;;;;;-0.14;98.76;100780.44;220027;1271;139058;-90
2023/02/22 23:38:50;;;;;;;26.60;10.00;;;;;;;-0.15;98.72;100780.66;219593;1267;142485;-90
2023/02/22 23:43:51;;;;;;;23.20;9.80;;;;;;;-0.17;98.43;100784.37;219810;1267;97966;-91
2023/02/22 23:48:53;;;;;;;26.20;10.00;;;;;;;-0.17;98.61;100775.39;219012;1271;138575;-88
2023/02/22 23:53:54;;;;;;;24.40;11.10;;;;;;;-0.18;98.39;100768.54;220896;1268;139152;-89
2023/02/22 23:58:56;;;;;;;24.60;11.20;;;;;;;-0.19;98.33;100763.69;218739;1268;139712;-89
